Almak — UCEL — position and weather

sailwx.info

Track history (hours):
 
Tides and Currents Weather Stations Pressure Air Temp Water Temp Dewpoint Dewpoint Depression Visibility Wind Speed Wind Dir Waves Ship Positions

Almak

Last reported at 2015-Apr-25 13:32 UTC. Time now 2015-Apr-28 11:55 UTC.
Position N 69°46' E 019°10'.

Length 41 m; draft 6 m.

Type: Fishing. MMSI: 273317270.

Date/timePositionNaut miles runAvg speedWind from/ knotsBaromVisibWave heightAir tempDewpointWater temp
2015-Apr-25 13:32N 69°46' E 019°10'8 8.3
2015-Apr-25 12:33N 69°39' E 018°58'0 0.0
2015-Apr-25 11:33N 69°39' E 018°58'0 0.0
2015-Apr-25 10:33N 69°39' E 018°58'0 0.0
2015-Apr-25 09:33N 69°39' E 018°58'0 0.0
2015-Apr-25 08:33N 69°39' E 018°58'0 0.0
2015-Apr-25 07:33N 69°39' E 018°58'0 0.0
2015-Apr-25 06:33N 69°39' E 018°58'0 0.0
2015-Apr-25 05:33N 69°39' E 018°58'0 0.0
2015-Apr-25 04:33N 69°39' E 018°58'0 0.0
2015-Apr-25 03:33N 69°39' E 018°58'0 0.0
2015-Apr-25 02:33N 69°39' E 018°58'0 0.0
2015-Apr-25 01:33N 69°39' E 018°58'0 0.0
2015-Apr-25 00:33N 69°39' E 018°58'0 0.0
2015-Apr-24 23:33N 69°39' E 018°58'0 0.0
2015-Apr-24 22:33N 69°39' E 018°58'0 0.0
2015-Apr-24 21:33N 69°39' E 018°58'0 0.0
2015-Apr-24 20:33N 69°39' E 018°58'0 0.0
2015-Apr-24 19:33N 69°39' E 018°58'0 0.0
2015-Apr-24 18:33N 69°39' E 018°58'0 0.3
2015-Apr-24 17:33N 69°39' E 018°59'2 1.6
2015-Apr-24 16:33N 69°38' E 018°57'0 0.0
2015-Apr-24 15:33N 69°38' E 018°57'0 0.0
2015-Apr-24 14:33N 69°38' E 018°57'0 0.0
2015-Apr-24 13:33N 69°38' E 018°57'0 0.0
2015-Apr-24 12:33N 69°38' E 018°57'0 0.0
2015-Apr-24 11:33N 69°38' E 018°57'0 0.0
2015-Apr-24 10:33N 69°38' E 018°57'0 0.0
2015-Apr-24 09:33N 69°38' E 018°57'0 0.0
2015-Apr-24 08:33N 69°38' E 018°57'0 0.0
2015-Apr-24 07:33N 69°38' E 018°57'0 0.0
2015-Apr-24 06:33N 69°38' E 018°57'0 0.0
2015-Apr-24 05:33N 69°38' E 018°57'1 1.0
2015-Apr-24 04:33N 69°39' E 018°58'  
Track history (hours):
 
Tides and Currents Weather Stations Pressure Air Temp Water Temp Dewpoint Dewpoint Depression Visibility Wind Speed Wind Dir Waves Ship Positions

Almak

Last reported at 2015-Apr-25 13:32 UTC. Time now 2015-Apr-28 11:55 UTC.
Position N 69°46' E 019°10'.

Length 41 m; draft 6 m.

Type: Fishing. MMSI: 273317270.

Date/timePositionNaut miles runAvg speedWind from/ knotsBaromVisibWave heightAir tempDewpointWater temp
2015-Apr-25 13:32N 69°46' E 019°10'8 8.3
2015-Apr-25 12:33N 69°39' E 018°58'0 0.0
2015-Apr-25 11:33N 69°39' E 018°58'0 0.0
2015-Apr-25 10:33N 69°39' E 018°58'0 0.0
2015-Apr-25 09:33N 69°39' E 018°58'0 0.0
2015-Apr-25 08:33N 69°39' E 018°58'0 0.0
2015-Apr-25 07:33N 69°39' E 018°58'0 0.0
2015-Apr-25 06:33N 69°39' E 018°58'0 0.0
2015-Apr-25 05:33N 69°39' E 018°58'0 0.0
2015-Apr-25 04:33N 69°39' E 018°58'0 0.0
2015-Apr-25 03:33N 69°39' E 018°58'0 0.0
2015-Apr-25 02:33N 69°39' E 018°58'0 0.0
2015-Apr-25 01:33N 69°39' E 018°58'0 0.0
2015-Apr-25 00:33N 69°39' E 018°58'0 0.0
2015-Apr-24 23:33N 69°39' E 018°58'0 0.0
2015-Apr-24 22:33N 69°39' E 018°58'0 0.0
2015-Apr-24 21:33N 69°39' E 018°58'0 0.0
2015-Apr-24 20:33N 69°39' E 018°58'0 0.0
2015-Apr-24 19:33N 69°39' E 018°58'0 0.0
2015-Apr-24 18:33N 69°39' E 018°58'0 0.3
2015-Apr-24 17:33N 69°39' E 018°59'2 1.6
2015-Apr-24 16:33N 69°38' E 018°57'0 0.0
2015-Apr-24 15:33N 69°38' E 018°57'0 0.0
2015-Apr-24 14:33N 69°38' E 018°57'0 0.0
2015-Apr-24 13:33N 69°38' E 018°57'0 0.0
2015-Apr-24 12:33N 69°38' E 018°57'0 0.0
2015-Apr-24 11:33N 69°38' E 018°57'0 0.0
2015-Apr-24 10:33N 69°38' E 018°57'0 0.0
2015-Apr-24 09:33N 69°38' E 018°57'0 0.0
2015-Apr-24 08:33N 69°38' E 018°57'0 0.0
2015-Apr-24 07:33N 69°38' E 018°57'0 0.0
2015-Apr-24 06:33N 69°38' E 018°57'0 0.0
2015-Apr-24 05:33N 69°38' E 018°57'1 1.0
2015-Apr-24 04:33N 69°39' E 018°58'  

Dump ship's entire track history